Airfield :
LOGIN :

Register | Disclaimer

   EN    FR    IT 

 










Legend :    VFR   Marginal VFR   IFR   Intensive IFR   Very Intensive IFR
Visi :
Ceiling :
>= 8 km
>= 3000ft
5 to 8 km
1000 to 3000 ft
1500m to 5 km
500 to 1000 ft
800 to 1500m
200 to 500 ft
< 800m
< 200 ft
Symbols :   Thunderstorms  Fog  Heavy snow  Heavy precipitations  Wind > 20 kt
SIGMETs :     Misc.  Thunderstorms  Icing  Turbulence  Mountain Waves  Volcanic Ashes






- Airport Elevation : 82 ft
- IATA code : AAR


EKAH - Aarhus Tirstrup

CURRENT METAR :
  • 280950Z AUTO 29012KT 9999NDV BKN013/// BKN029/// 05/03 Q1005

EXPIRED METARs :
  • 280920Z AUTO 27012KT 9999NDV -SHRA BKN011/// 04/03 Q1004
  • 280850Z AUTO 27012KT 240V300 9999NDV BKN012/// BKN026/// 04/02 Q1004
  • 280820Z AUTO 26010KT 9999NDV SCT010/// BKN030/// BKN062/// 03/02 Q1004
  • 280750Z AUTO 26009KT 230V290 9999NDV BKN009/// BKN029/// BKN081/// 03/02 Q1004
  • 280720Z AUTO 26008KT 9999NDV FEW009/// BKN015/// 03/02 Q1003

TAF TAF EKAH
Valid from the 28 at 06:00 until the 29 at 06:00 UTC


280516Z 2806/2906 27012KT 9999 BKN020
TEMPO 2806/2818 4000 SHRASN BKN010 SCT015CB
BECMG 2822/2824 19010KT
BECMG 2904/2906 15015KT 2000 RASN BKN004



MET'MAP, your aeronautical weather chart ! - Copyright ORBIFLY December 2007 - Disclaimer

ORBIFLY MET'MAP TEAM :

Programming & Development : Alexandra Zaïnal
Concept & original design : Baudouin d'Aumeries
Assistance for programming : Marc-Olivier Méhu
Technical & hardware support : Manuel Goepfert

Contact : metmap@orbifly.com




SOURCES & CREDITS :

   NOAA